sensor_id;sensor_type;location;lat;lon;timestamp;P1;durP1;ratioP1;P2;durP2;ratioP2
44366;SDS011;30086;57.660;12.000;2024-02-21T00:00:51;56.53;;;8.52;;
44366;SDS011;30086;57.660;12.000;2024-02-21T00:03:17;55.60;;;9.75;;
44366;SDS011;30086;57.660;12.000;2024-02-21T00:05:43;58.00;;;8.63;;
44366;SDS011;30086;57.660;12.000;2024-02-21T00:08:09;61.20;;;10.10;;
44366;SDS011;30086;57.660;12.000;2024-02-21T00:10:35;63.10;;;10.98;;
44366;SDS011;30086;57.660;12.000;2024-02-21T00:13:01;68.15;;;13.10;;
44366;SDS011;30086;57.660;12.000;2024-02-21T00:15:28;64.22;;;12.43;;
44366;SDS011;30086;57.660;12.000;2024-02-21T00:17:54;64.40;;;11.93;;
44366;SDS011;30086;57.660;12.000;2024-02-21T00:20:20;58.17;;;13.20;;
44366;SDS011;30086;57.660;12.000;2024-02-21T00:22:46;65.68;;;12.88;;
44366;SDS011;30086;57.660;12.000;2024-02-21T00:25:12;51.83;;;11.85;;
44366;SDS011;30086;57.660;12.000;2024-02-21T00:27:38;69.35;;;13.55;;
44366;SDS011;30086;57.660;12.000;2024-02-21T00:30:05;61.95;;;12.00;;
44366;SDS011;30086;57.660;12.000;2024-02-21T00:32:31;63.05;;;12.57;;
44366;SDS011;30086;57.660;12.000;2024-02-21T00:34:59;67.07;;;13.05;;
44366;SDS011;30086;57.660;12.000;2024-02-21T00:37:25;77.55;;;13.00;;
44366;SDS011;30086;57.660;12.000;2024-02-21T00:39:51;60.75;;;12.23;;
44366;SDS011;30086;57.660;12.000;2024-02-21T00:42:17;71.03;;;14.25;;
44366;SDS011;30086;57.660;12.000;2024-02-21T00:44:44;72.72;;;12.00;;
44366;SDS011;30086;57.660;12.000;2024-02-21T00:47:19;57.15;;;12.20;;
44366;SDS011;30086;57.660;12.000;2024-02-21T00:49:45;63.20;;;12.80;;
44366;SDS011;30086;57.660;12.000;2024-02-21T00:52:11;64.43;;;12.20;;
44366;SDS011;30086;57.660;12.000;2024-02-21T00:54:37;56.15;;;12.82;;
44366;SDS011;30086;57.660;12.000;2024-02-21T00:57:03;59.00;;;13.25;;
44366;SDS011;30086;57.660;12.000;2024-02-21T00:59:29;66.07;;;12.90;;
44366;SDS011;30086;57.660;12.000;2024-02-21T01:01:55;56.95;;;15.05;;
44366;SDS011;30086;57.660;12.000;2024-02-21T01:04:22;60.70;;;13.32;;
44366;SDS011;30086;57.660;12.000;2024-02-21T01:06:49;58.25;;;13.27;;
44366;SDS011;30086;57.660;12.000;2024-02-21T01:09:15;54.78;;;14.43;;
44366;SDS011;30086;57.660;12.000;2024-02-21T01:11:41;58.55;;;13.20;;
44366;SDS011;30086;57.660;12.000;2024-02-21T01:14:07;68.22;;;15.10;;
44366;SDS011;30086;57.660;12.000;2024-02-21T01:16:33;67.47;;;13.57;;
44366;SDS011;30086;57.660;12.000;2024-02-21T01:18:59;68.38;;;13.68;;
44366;SDS011;30086;57.660;12.000;2024-02-21T01:21:25;60.30;;;11.90;;
44366;SDS011;30086;57.660;12.000;2024-02-21T01:23:51;52.97;;;11.63;;
44366;SDS011;30086;57.660;12.000;2024-02-21T01:26:17;73.90;;;14.98;;
44366;SDS011;30086;57.660;12.000;2024-02-21T01:28:43;53.53;;;12.43;;
44366;SDS011;30086;57.660;12.000;2024-02-21T01:31:10;51.55;;;11.77;;
44366;SDS011;30086;57.660;12.000;2024-02-21T01:33:36;61.22;;;11.55;;
44366;SDS011;30086;57.660;12.000;2024-02-21T01:36:04;44.00;;;11.50;;
44366;SDS011;30086;57.660;12.000;2024-02-21T01:38:33;49.03;;;10.80;;
44366;SDS011;30086;57.660;12.000;2024-02-21T01:40:59;38.65;;;9.10;;
44366;SDS011;30086;57.660;12.000;2024-02-21T01:43:25;37.38;;;9.30;;
44366;SDS011;30086;57.660;12.000;2024-02-21T01:45:55;33.30;;;8.43;;
44366;SDS011;30086;57.660;12.000;2024-02-21T01:48:21;25.92;;;9.77;;
44366;SDS011;30086;57.660;12.000;2024-02-21T01:50:51;44.50;;;9.18;;
44366;SDS011;30086;57.660;12.000;2024-02-21T01:53:22;45.20;;;11.38;;
44366;SDS011;30086;57.660;12.000;2024-02-21T01:55:48;40.90;;;10.45;;
44366;SDS011;30086;57.660;12.000;2024-02-21T01:58:14;46.60;;;10.02;;
44366;SDS011;30086;57.660;12.000;2024-02-21T02:00:44;31.27;;;8.52;;
44366;SDS011;30086;57.660;12.000;2024-02-21T02:03:11;37.17;;;9.75;;
44366;SDS011;30086;57.660;12.000;2024-02-21T02:05:43;44.90;;;10.00;;
44366;SDS011;30086;57.660;12.000;2024-02-21T02:08:10;47.03;;;11.20;;
44366;SDS011;30086;57.660;12.000;2024-02-21T02:10:36;37.22;;;10.38;;
44366;SDS011;30086;57.660;12.000;2024-02-21T02:13:03;47.38;;;11.85;;
44366;SDS011;30086;57.660;12.000;2024-02-21T02:15:37;40.13;;;11.25;;
44366;SDS011;30086;57.660;12.000;2024-02-21T02:18:03;48.47;;;12.32;;
44366;SDS011;30086;57.660;12.000;2024-02-21T02:20:29;50.50;;;12.63;;
44366;SDS011;30086;57.660;12.000;2024-02-21T02:22:55;57.22;;;13.07;;
44366;SDS011;30086;57.660;12.000;2024-02-21T02:25:21;63.85;;;15.82;;
44366;SDS011;30086;57.660;12.000;2024-02-21T02:27:47;66.28;;;15.98;;
44366;SDS011;30086;57.660;12.000;2024-02-21T02:30:13;57.05;;;14.98;;
44366;SDS011;30086;57.660;12.000;2024-02-21T02:32:43;57.35;;;14.30;;
44366;SDS011;30086;57.660;12.000;2024-02-21T02:35:09;58.00;;;15.38;;
44366;SDS011;30086;57.660;12.000;2024-02-21T02:37:35;47.80;;;13.43;;
44366;SDS011;30086;57.660;12.000;2024-02-21T02:40:03;54.75;;;13.20;;
44366;SDS011;30086;57.660;12.000;2024-02-21T02:42:29;65.72;;;13.50;;
44366;SDS011;30086;57.660;12.000;2024-02-21T02:44:55;63.42;;;16.00;;
44366;SDS011;30086;57.660;12.000;2024-02-21T02:47:22;61.53;;;16.48;;
44366;SDS011;30086;57.660;12.000;2024-02-21T02:49:48;63.97;;;15.88;;
44366;SDS011;30086;57.660;12.000;2024-02-21T02:52:16;77.65;;;18.08;;
44366;SDS011;30086;57.660;12.000;2024-02-21T02:54:43;64.55;;;14.73;;
44366;SDS011;30086;57.660;12.000;2024-02-21T02:57:09;49.70;;;14.02;;
44366;SDS011;30086;57.660;12.000;2024-02-21T02:59:35;48.28;;;12.65;;
44366;SDS011;30086;57.660;12.000;2024-02-21T03:02:01;47.58;;;12.32;;
44366;SDS011;30086;57.660;12.000;2024-02-21T03:04:27;45.00;;;11.45;;
44366;SDS011;30086;57.660;12.000;2024-02-21T03:06:53;41.13;;;12.90;;
44366;SDS011;30086;57.660;12.000;2024-02-21T03:09:19;44.13;;;14.18;;
44366;SDS011;30086;57.660;12.000;2024-02-21T03:11:45;39.92;;;11.63;;
44366;SDS011;30086;57.660;12.000;2024-02-21T03:14:11;43.72;;;12.98;;
44366;SDS011;30086;57.660;12.000;2024-02-21T03:16:37;37.53;;;11.80;;
44366;SDS011;30086;57.660;12.000;2024-02-21T03:19:03;31.30;;;10.23;;
44366;SDS011;30086;57.660;12.000;2024-02-21T03:21:29;19.98;;;7.00;;
44366;SDS011;30086;57.660;12.000;2024-02-21T03:23:55;18.90;;;6.47;;
44366;SDS011;30086;57.660;12.000;2024-02-21T03:26:21;15.95;;;5.28;;
44366;SDS011;30086;57.660;12.000;2024-02-21T03:28:47;19.52;;;5.55;;
44366;SDS011;30086;57.660;12.000;2024-02-21T03:31:13;11.27;;;4.30;;
44366;SDS011;30086;57.660;12.000;2024-02-21T03:33:40;15.00;;;4.13;;
44366;SDS011;30086;57.660;12.000;2024-02-21T03:36:06;12.15;;;4.85;;
44366;SDS011;30086;57.660;12.000;2024-02-21T03:38:38;13.32;;;4.50;;
44366;SDS011;30086;57.660;12.000;2024-02-21T03:41:05;8.57;;;3.33;;
44366;SDS011;30086;57.660;12.000;2024-02-21T03:43:31;9.27;;;3.40;;
44366;SDS011;30086;57.660;12.000;2024-02-21T03:45:57;6.15;;;2.78;;
44366;SDS011;30086;57.660;12.000;2024-02-21T03:48:23;5.93;;;2.65;;
44366;SDS011;30086;57.660;12.000;2024-02-21T03:50:49;10.98;;;2.65;;
44366;SDS011;30086;57.660;12.000;2024-02-21T03:53:15;3.95;;;1.95;;
44366;SDS011;30086;57.660;12.000;2024-02-21T03:55:41;5.93;;;2.50;;
44366;SDS011;30086;57.660;12.000;2024-02-21T03:58:07;4.18;;;2.13;;
44366;SDS011;30086;57.660;12.000;2024-02-21T04:00:33;4.75;;;2.08;;
44366;SDS011;30086;57.660;12.000;2024-02-21T04:02:59;5.30;;;2.50;;
44366;SDS011;30086;57.660;12.000;2024-02-21T04:05:25;3.88;;;2.38;;
44366;SDS011;30086;57.660;12.000;2024-02-21T04:07:51;8.05;;;2.45;;
44366;SDS011;30086;57.660;12.000;2024-02-21T04:10:17;5.97;;;2.45;;
44366;SDS011;30086;57.660;12.000;2024-02-21T04:12:43;6.78;;;2.85;;
44366;SDS011;30086;57.660;12.000;2024-02-21T04:15:09;7.70;;;2.63;;
44366;SDS011;30086;57.660;12.000;2024-02-21T04:17:36;7.47;;;2.67;;
44366;SDS011;30086;57.660;12.000;2024-02-21T04:20:03;4.25;;;2.20;;
44366;SDS011;30086;57.660;12.000;2024-02-21T04:22:30;6.38;;;2.55;;
44366;SDS011;30086;57.660;12.000;2024-02-21T04:25:00;14.93;;;3.30;;
44366;SDS011;30086;57.660;12.000;2024-02-21T04:27:26;6.50;;;3.17;;
44366;SDS011;30086;57.660;12.000;2024-02-21T04:29:52;10.48;;;3.30;;
44366;SDS011;30086;57.660;12.000;2024-02-21T04:32:19;10.07;;;3.22;;
44366;SDS011;30086;57.660;12.000;2024-02-21T04:34:45;11.27;;;3.10;;
44366;SDS011;30086;57.660;12.000;2024-02-21T04:37:11;8.50;;;3.05;;
44366;SDS011;30086;57.660;12.000;2024-02-21T04:39:37;9.73;;;4.07;;
44366;SDS011;30086;57.660;12.000;2024-02-21T04:42:03;6.50;;;3.85;;
44366;SDS011;30086;57.660;12.000;2024-02-21T04:44:29;11.55;;;3.83;;
44366;SDS011;30086;57.660;12.000;2024-02-21T04:46:55;14.52;;;4.55;;
44366;SDS011;30086;57.660;12.000;2024-02-21T04:49:21;14.43;;;4.88;;
44366;SDS011;30086;57.660;12.000;2024-02-21T04:51:47;12.85;;;5.72;;
44366;SDS011;30086;57.660;12.000;2024-02-21T04:54:13;15.88;;;5.70;;
44366;SDS011;30086;57.660;12.000;2024-02-21T04:56:39;16.58;;;5.80;;
44366;SDS011;30086;57.660;12.000;2024-02-21T04:59:05;18.60;;;5.65;;
44366;SDS011;30086;57.660;12.000;2024-02-21T05:01:33;13.60;;;6.28;;
44366;SDS011;30086;57.660;12.000;2024-02-21T05:03:59;16.67;;;5.38;;
44366;SDS011;30086;57.660;12.000;2024-02-21T05:06:25;21.25;;;5.35;;
44366;SDS011;30086;57.660;12.000;2024-02-21T05:08:52;15.15;;;5.30;;
44366;SDS011;30086;57.660;12.000;2024-02-21T05:11:20;28.70;;;6.80;;
44366;SDS011;30086;57.660;12.000;2024-02-21T05:13:46;15.80;;;6.40;;
44366;SDS011;30086;57.660;12.000;2024-02-21T05:16:12;19.45;;;6.22;;
44366;SDS011;30086;57.660;12.000;2024-02-21T05:18:39;12.70;;;3.47;;
44366;SDS011;30086;57.660;12.000;2024-02-21T05:21:05;17.27;;;3.97;;
44366;SDS011;30086;57.660;12.000;2024-02-21T05:23:31;16.42;;;3.47;;
44366;SDS011;30086;57.660;12.000;2024-02-21T05:25:57;9.45;;;2.17;;
44366;SDS011;30086;57.660;12.000;2024-02-21T05:28:24;7.35;;;2.25;;
44366;SDS011;30086;57.660;12.000;2024-02-21T05:30:50;16.63;;;3.70;;
44366;SDS011;30086;57.660;12.000;2024-02-21T05:33:16;10.85;;;3.55;;
44366;SDS011;30086;57.660;12.000;2024-02-21T05:35:46;15.15;;;3.53;;
44366;SDS011;30086;57.660;12.000;2024-02-21T05:38:14;16.25;;;3.85;;
44366;SDS011;30086;57.660;12.000;2024-02-21T05:40:40;21.65;;;4.05;;
44366;SDS011;30086;57.660;12.000;2024-02-21T05:43:09;22.58;;;4.78;;
44366;SDS011;30086;57.660;12.000;2024-02-21T05:45:36;16.15;;;5.43;;
44366;SDS011;30086;57.660;12.000;2024-02-21T05:48:03;32.08;;;6.47;;
44366;SDS011;30086;57.660;12.000;2024-02-21T05:50:29;25.13;;;5.13;;
44366;SDS011;30086;57.660;12.000;2024-02-21T05:52:55;18.42;;;4.47;;
44366;SDS011;30086;57.660;12.000;2024-02-21T05:55:22;23.20;;;4.90;;
44366;SDS011;30086;57.660;12.000;2024-02-21T05:57:49;21.23;;;4.25;;
44366;SDS011;30086;57.660;12.000;2024-02-21T06:00:15;17.25;;;3.80;;
44366;SDS011;30086;57.660;12.000;2024-02-21T06:02:42;16.92;;;3.60;;
44366;SDS011;30086;57.660;12.000;2024-02-21T06:05:08;15.30;;;3.25;;
44366;SDS011;30086;57.660;12.000;2024-02-21T06:07:34;15.88;;;3.58;;
44366;SDS011;30086;57.660;12.000;2024-02-21T06:10:04;15.75;;;3.67;;
44366;SDS011;30086;57.660;12.000;2024-02-21T06:12:30;27.17;;;5.50;;
44366;SDS011;30086;57.660;12.000;2024-02-21T06:14:56;19.20;;;3.70;;
44366;SDS011;30086;57.660;12.000;2024-02-21T06:17:22;23.35;;;4.85;;
44366;SDS011;30086;57.660;12.000;2024-02-21T06:19:48;17.58;;;3.65;;
44366;SDS011;30086;57.660;12.000;2024-02-21T06:22:14;22.35;;;4.88;;
44366;SDS011;30086;57.660;12.000;2024-02-21T06:24:40;12.98;;;4.10;;
44366;SDS011;30086;57.660;12.000;2024-02-21T06:27:06;21.88;;;4.65;;
44366;SDS011;30086;57.660;12.000;2024-02-21T06:29:33;16.23;;;2.78;;
44366;SDS011;30086;57.660;12.000;2024-02-21T06:31:59;17.17;;;3.50;;
44366;SDS011;30086;57.660;12.000;2024-02-21T06:34:25;19.83;;;3.95;;
44366;SDS011;30086;57.660;12.000;2024-02-21T06:36:51;18.35;;;4.30;;
44366;SDS011;30086;57.660;12.000;2024-02-21T06:39:17;11.82;;;3.63;;
44366;SDS011;30086;57.660;12.000;2024-02-21T06:41:43;13.85;;;3.65;;
44366;SDS011;30086;57.660;12.000;2024-02-21T06:44:11;14.07;;;2.90;;
44366;SDS011;30086;57.660;12.000;2024-02-21T06:46:37;9.18;;;2.85;;
44366;SDS011;30086;57.660;12.000;2024-02-21T06:49:03;13.10;;;2.72;;
44366;SDS011;30086;57.660;12.000;2024-02-21T06:51:29;12.13;;;2.67;;
44366;SDS011;30086;57.660;12.000;2024-02-21T06:53:56;22.15;;;3.47;;
44366;SDS011;30086;57.660;12.000;2024-02-21T06:56:25;13.13;;;2.63;;
44366;SDS011;30086;57.660;12.000;2024-02-21T06:58:53;13.55;;;3.20;;
44366;SDS011;30086;57.660;12.000;2024-02-21T07:01:19;10.10;;;2.60;;
44366;SDS011;30086;57.660;12.000;2024-02-21T07:03:45;17.90;;;4.43;;
44366;SDS011;30086;57.660;12.000;2024-02-21T07:06:11;12.85;;;2.80;;
44366;SDS011;30086;57.660;12.000;2024-02-21T07:08:37;19.80;;;4.35;;
44366;SDS011;30086;57.660;12.000;2024-02-21T07:11:04;12.50;;;3.30;;
44366;SDS011;30086;57.660;12.000;2024-02-21T07:13:30;14.93;;;3.28;;
44366;SDS011;30086;57.660;12.000;2024-02-21T07:15:56;10.25;;;3.03;;
44366;SDS011;30086;57.660;12.000;2024-02-21T07:18:22;7.75;;;2.63;;
44366;SDS011;30086;57.660;12.000;2024-02-21T07:20:50;10.35;;;3.03;;
44366;SDS011;30086;57.660;12.000;2024-02-21T07:23:16;6.57;;;2.20;;
44366;SDS011;30086;57.660;12.000;2024-02-21T07:25:42;9.75;;;2.08;;
44366;SDS011;30086;57.660;12.000;2024-02-21T07:28:08;8.20;;;2.00;;
44366;SDS011;30086;57.660;12.000;2024-02-21T07:30:34;6.65;;;2.03;;
44366;SDS011;30086;57.660;12.000;2024-02-21T07:33:01;7.47;;;2.25;;
44366;SDS011;30086;57.660;12.000;2024-02-21T07:35:27;9.77;;;2.30;;
44366;SDS011;30086;57.660;12.000;2024-02-21T07:37:53;6.22;;;2.17;;
44366;SDS011;30086;57.660;12.000;2024-02-21T07:40:19;8.60;;;2.30;;
44366;SDS011;30086;57.660;12.000;2024-02-21T07:42:45;4.90;;;2.50;;
44366;SDS011;30086;57.660;12.000;2024-02-21T07:45:11;7.45;;;2.58;;
44366;SDS011;30086;57.660;12.000;2024-02-21T07:47:37;7.13;;;2.45;;
44366;SDS011;30086;57.660;12.000;2024-02-21T07:50:03;6.05;;;2.55;;
44366;SDS011;30086;57.660;12.000;2024-02-21T07:52:30;9.77;;;2.58;;
44366;SDS011;30086;57.660;12.000;2024-02-21T07:54:56;6.72;;;2.40;;
44366;SDS011;30086;57.660;12.000;2024-02-21T07:57:22;9.32;;;3.10;;
44366;SDS011;30086;57.660;12.000;2024-02-21T07:59:48;9.32;;;3.00;;
44366;SDS011;30086;57.660;12.000;2024-02-21T08:02:14;5.28;;;2.40;;
44366;SDS011;30086;57.660;12.000;2024-02-21T08:04:41;9.23;;;3.00;;
44366;SDS011;30086;57.660;12.000;2024-02-21T08:07:07;12.55;;;3.20;;
44366;SDS011;30086;57.660;12.000;2024-02-21T08:09:33;1.42;;;0.75;;
44366;SDS011;30086;57.660;12.000;2024-02-21T08:12:00;8.40;;;3.47;;
44366;SDS011;30086;57.660;12.000;2024-02-21T08:14:26;10.00;;;3.53;;
44366;SDS011;30086;57.660;12.000;2024-02-21T08:16:52;11.32;;;2.42;;
44366;SDS011;30086;57.660;12.000;2024-02-21T08:19:19;10.88;;;3.75;;
44366;SDS011;30086;57.660;12.000;2024-02-21T08:21:58;4.38;;;2.30;;
44366;SDS011;30086;57.660;12.000;2024-02-21T08:24:24;1.38;;;0.65;;
44366;SDS011;30086;57.660;12.000;2024-02-21T08:26:50;5.28;;;1.75;;
44366;SDS011;30086;57.660;12.000;2024-02-21T08:29:16;0.25;;;0.20;;
44366;SDS011;30086;57.660;12.000;2024-02-21T08:31:42;1.65;;;0.70;;
44366;SDS011;30086;57.660;12.000;2024-02-21T08:34:08;0.20;;;0.17;;
44366;SDS011;30086;57.660;12.000;2024-02-21T08:36:34;1.48;;;0.40;;
44366;SDS011;30086;57.660;12.000;2024-02-21T08:39:01;0.55;;;0.40;;
44366;SDS011;30086;57.660;12.000;2024-02-21T08:41:30;0.43;;;0.43;;
44366;SDS011;30086;57.660;12.000;2024-02-21T08:43:57;1.63;;;0.88;;
44366;SDS011;30086;57.660;12.000;2024-02-21T08:46:23;1.77;;;1.10;;
44366;SDS011;30086;57.660;12.000;2024-02-21T08:48:50;4.53;;;2.22;;
44366;SDS011;30086;57.660;12.000;2024-02-21T08:51:17;6.47;;;3.35;;
44366;SDS011;30086;57.660;12.000;2024-02-21T08:53:46;13.48;;;6.22;;
44366;SDS011;30086;57.660;12.000;2024-02-21T08:56:12;23.88;;;9.98;;
44366;SDS011;30086;57.660;12.000;2024-02-21T08:58:39;14.15;;;6.13;;
44366;SDS011;30086;57.660;12.000;2024-02-21T09:01:06;22.85;;;10.80;;
44366;SDS011;30086;57.660;12.000;2024-02-21T09:03:35;4.30;;;2.35;;
44366;SDS011;30086;57.660;12.000;2024-02-21T09:06:02;18.58;;;7.47;;
44366;SDS011;30086;57.660;12.000;2024-02-21T09:08:28;7.75;;;3.10;;
44366;SDS011;30086;57.660;12.000;2024-02-21T09:10:54;4.68;;;2.15;;
44366;SDS011;30086;57.660;12.000;2024-02-21T09:13:20;8.82;;;2.90;;
44366;SDS011;30086;57.660;12.000;2024-02-21T09:15:47;8.05;;;3.35;;
44366;SDS011;30086;57.660;12.000;2024-02-21T09:18:14;5.95;;;2.53;;
44366;SDS011;30086;57.660;12.000;2024-02-21T09:20:40;3.65;;;1.38;;
44366;SDS011;30086;57.660;12.000;2024-02-21T09:23:06;10.88;;;4.07;;
44366;SDS011;30086;57.660;12.000;2024-02-21T09:25:32;10.07;;;4.65;;
44366;SDS011;30086;57.660;12.000;2024-02-21T09:27:59;16.13;;;6.60;;
44366;SDS011;30086;57.660;12.000;2024-02-21T09:30:25;3.00;;;1.77;;
44366;SDS011;30086;57.660;12.000;2024-02-21T09:32:51;5.97;;;1.73;;
44366;SDS011;30086;57.660;12.000;2024-02-21T09:35:18;1.73;;;1.35;;
44366;SDS011;30086;57.660;12.000;2024-02-21T09:37:44;1.63;;;0.85;;
44366;SDS011;30086;57.660;12.000;2024-02-21T09:40:10;1.90;;;0.82;;
44366;SDS011;30086;57.660;12.000;2024-02-21T09:42:37;10.00;;;2.78;;
44366;SDS011;30086;57.660;12.000;2024-02-21T09:45:25;1.85;;;1.05;;
44366;SDS011;30086;57.660;12.000;2024-02-21T09:47:52;2.88;;;0.80;;
44366;SDS011;30086;57.660;12.000;2024-02-21T09:50:21;4.43;;;1.63;;
44366;SDS011;30086;57.660;12.000;2024-02-21T09:52:48;1.38;;;0.88;;
44366;SDS011;30086;57.660;12.000;2024-02-21T09:55:15;3.97;;;1.98;;
44366;SDS011;30086;57.660;12.000;2024-02-21T09:57:43;2.65;;;1.40;;
44366;SDS011;30086;57.660;12.000;2024-02-21T10:00:10;3.60;;;1.48;;
44366;SDS011;30086;57.660;12.000;2024-02-21T10:02:38;7.78;;;3.95;;
44366;SDS011;30086;57.660;12.000;2024-02-21T10:05:04;12.73;;;3.35;;
44366;SDS011;30086;57.660;12.000;2024-02-21T10:07:33;2.58;;;1.15;;
44366;SDS011;30086;57.660;12.000;2024-02-21T10:10:02;2.88;;;1.20;;
44366;SDS011;30086;57.660;12.000;2024-02-21T10:12:29;10.75;;;4.72;;
44366;SDS011;30086;57.660;12.000;2024-02-21T10:15:04;3.47;;;1.98;;
44366;SDS011;30086;57.660;12.000;2024-02-21T10:17:34;17.45;;;5.00;;
44366;SDS011;30086;57.660;12.000;2024-02-21T10:20:08;22.50;;;10.07;;
44366;SDS011;30086;57.660;12.000;2024-02-21T10:22:34;14.52;;;6.95;;
44366;SDS011;30086;57.660;12.000;2024-02-21T10:25:14;3.78;;;1.77;;
44366;SDS011;30086;57.660;12.000;2024-02-21T10:27:40;8.13;;;4.10;;
44366;SDS011;30086;57.660;12.000;2024-02-21T10:30:15;3.30;;;0.60;;
44366;SDS011;30086;57.660;12.000;2024-02-21T10:32:51;1.05;;;0.88;;
44366;SDS011;30086;57.660;12.000;2024-02-21T10:35:27;4.63;;;1.80;;
44366;SDS011;30086;57.660;12.000;2024-02-21T10:37:54;0.50;;;0.35;;
44366;SDS011;30086;57.660;12.000;2024-02-21T10:40:24;3.72;;;1.38;;
44366;SDS011;30086;57.660;12.000;2024-02-21T10:42:53;3.05;;;1.50;;
44366;SDS011;30086;57.660;12.000;2024-02-21T10:45:23;2.03;;;1.15;;
44366;SDS011;30086;57.660;12.000;2024-02-21T10:47:54;5.05;;;1.20;;
44366;SDS011;30086;57.660;12.000;2024-02-21T10:50:21;0.50;;;0.43;;
44366;SDS011;30086;57.660;12.000;2024-02-21T10:55:19;2.42;;;0.73;;
44366;SDS011;30086;57.660;12.000;2024-02-21T10:57:48;7.15;;;2.05;;
44366;SDS011;30086;57.660;12.000;2024-02-21T11:00:17;2.92;;;1.08;;
44366;SDS011;30086;57.660;12.000;2024-02-21T11:02:46;41.15;;;3.80;;
44366;SDS011;30086;57.660;12.000;2024-02-21T11:05:13;107.60;;;6.35;;
44366;SDS011;30086;57.660;12.000;2024-02-21T11:07:41;8.20;;;1.25;;
44366;SDS011;30086;57.660;12.000;2024-02-21T11:10:19;21.83;;;5.55;;
44366;SDS011;30086;57.660;12.000;2024-02-21T11:12:47;22.15;;;2.97;;
44366;SDS011;30086;57.660;12.000;2024-02-21T11:15:13;2.00;;;0.98;;
44366;SDS011;30086;57.660;12.000;2024-02-21T11:17:40;11.85;;;3.20;;
44366;SDS011;30086;57.660;12.000;2024-02-21T11:20:12;7.43;;;3.00;;
44366;SDS011;30086;57.660;12.000;2024-02-21T11:22:42;0.90;;;0.75;;
44366;SDS011;30086;57.660;12.000;2024-02-21T11:25:08;5.57;;;2.20;;
44366;SDS011;30086;57.660;12.000;2024-02-21T11:27:36;8.90;;;4.57;;
44366;SDS011;30086;57.660;12.000;2024-02-21T11:30:04;21.88;;;6.95;;
44366;SDS011;30086;57.660;12.000;2024-02-21T11:32:31;12.80;;;6.13;;
44366;SDS011;30086;57.660;12.000;2024-02-21T11:34:58;9.77;;;4.45;;
44366;SDS011;30086;57.660;12.000;2024-02-21T11:37:31;3.97;;;2.83;;
44366;SDS011;30086;57.660;12.000;2024-02-21T11:40:10;16.00;;;4.75;;
44366;SDS011;30086;57.660;12.000;2024-02-21T11:42:37;10.38;;;3.88;;
44366;SDS011;30086;57.660;12.000;2024-02-21T11:45:03;21.00;;;5.25;;
44366;SDS011;30086;57.660;12.000;2024-02-21T11:47:29;12.05;;;4.57;;
44366;SDS011;30086;57.660;12.000;2024-02-21T11:49:57;5.18;;;3.08;;
44366;SDS011;30086;57.660;12.000;2024-02-21T11:52:24;13.30;;;5.25;;
44366;SDS011;30086;57.660;12.000;2024-02-21T11:54:50;12.30;;;5.15;;
44366;SDS011;30086;57.660;12.000;2024-02-21T11:57:20;9.45;;;4.32;;
44366;SDS011;30086;57.660;12.000;2024-02-21T11:59:46;11.00;;;4.55;;
44366;SDS011;30086;57.660;12.000;2024-02-21T12:02:14;21.42;;;6.78;;
44366;SDS011;30086;57.660;12.000;2024-02-21T12:04:43;16.98;;;5.35;;
44366;SDS011;30086;57.660;12.000;2024-02-21T12:07:10;13.98;;;4.88;;
44366;SDS011;30086;57.660;12.000;2024-02-21T12:09:36;12.65;;;5.60;;
44366;SDS011;30086;57.660;12.000;2024-02-21T12:12:08;15.85;;;5.80;;
44366;SDS011;30086;57.660;12.000;2024-02-21T12:14:35;11.48;;;5.70;;
44366;SDS011;30086;57.660;12.000;2024-02-21T12:17:01;11.85;;;3.05;;
44366;SDS011;30086;57.660;12.000;2024-02-21T12:19:30;5.97;;;3.10;;
44366;SDS011;30086;57.660;12.000;2024-02-21T12:21:58;12.95;;;5.22;;
44366;SDS011;30086;57.660;12.000;2024-02-21T12:24:25;9.10;;;4.22;;
44366;SDS011;30086;57.660;12.000;2024-02-21T12:26:54;7.93;;;4.15;;
44366;SDS011;30086;57.660;12.000;2024-02-21T12:29:21;14.65;;;5.57;;
44366;SDS011;30086;57.660;12.000;2024-02-21T12:31:49;13.20;;;4.65;;
44366;SDS011;30086;57.660;12.000;2024-02-21T12:34:15;10.82;;;4.40;;
44366;SDS011;30086;57.660;12.000;2024-02-21T12:36:45;10.88;;;5.38;;
44366;SDS011;30086;57.660;12.000;2024-02-21T12:39:15;8.88;;;4.30;;
44366;SDS011;30086;57.660;12.000;2024-02-21T12:41:41;3.67;;;1.45;;
44366;SDS011;30086;57.660;12.000;2024-02-21T12:44:09;7.28;;;3.97;;
44366;SDS011;30086;57.660;12.000;2024-02-21T12:46:40;7.40;;;4.07;;
44366;SDS011;30086;57.660;12.000;2024-02-21T12:49:14;7.68;;;3.60;;
44366;SDS011;30086;57.660;12.000;2024-02-21T12:51:41;6.50;;;3.80;;
44366;SDS011;30086;57.660;12.000;2024-02-21T12:54:07;7.43;;;3.65;;
44366;SDS011;30086;57.660;12.000;2024-02-21T12:56:36;11.23;;;4.15;;
44366;SDS011;30086;57.660;12.000;2024-02-21T12:59:03;11.60;;;4.75;;
44366;SDS011;30086;57.660;12.000;2024-02-21T13:01:29;8.50;;;4.05;;
44366;SDS011;30086;57.660;12.000;2024-02-21T13:03:55;10.35;;;6.35;;
44366;SDS011;30086;57.660;12.000;2024-02-21T13:06:22;15.98;;;8.40;;
44366;SDS011;30086;57.660;12.000;2024-02-21T13:08:48;17.38;;;8.73;;
44366;SDS011;30086;57.660;12.000;2024-02-21T13:11:15;12.93;;;7.03;;
44366;SDS011;30086;57.660;12.000;2024-02-21T13:13:42;15.55;;;6.07;;
44366;SDS011;30086;57.660;12.000;2024-02-21T13:16:08;13.75;;;6.45;;
44366;SDS011;30086;57.660;12.000;2024-02-21T13:18:35;9.27;;;5.30;;
44366;SDS011;30086;57.660;12.000;2024-02-21T13:21:07;9.38;;;4.60;;
44366;SDS011;30086;57.660;12.000;2024-02-21T13:23:34;11.43;;;3.10;;
44366;SDS011;30086;57.660;12.000;2024-02-21T13:26:03;6.55;;;3.92;;
44366;SDS011;30086;57.660;12.000;2024-02-21T13:28:29;12.07;;;3.50;;
44366;SDS011;30086;57.660;12.000;2024-02-21T13:30:55;5.70;;;2.78;;
44366;SDS011;30086;57.660;12.000;2024-02-21T13:33:22;7.35;;;2.15;;
44366;SDS011;30086;57.660;12.000;2024-02-21T13:35:48;5.85;;;2.75;;
44366;SDS011;30086;57.660;12.000;2024-02-21T13:38:18;3.67;;;1.80;;
44366;SDS011;30086;57.660;12.000;2024-02-21T13:40:44;10.07;;;2.70;;
44366;SDS011;30086;57.660;12.000;2024-02-21T13:43:11;6.30;;;2.30;;
44366;SDS011;30086;57.660;12.000;2024-02-21T13:45:38;4.50;;;2.40;;
44366;SDS011;30086;57.660;12.000;2024-02-21T13:48:11;7.47;;;2.30;;
44366;SDS011;30086;57.660;12.000;2024-02-21T13:50:39;6.30;;;1.95;;
44366;SDS011;30086;57.660;12.000;2024-02-21T13:53:09;1.23;;;0.60;;
44366;SDS011;30086;57.660;12.000;2024-02-21T13:55:40;8.27;;;2.17;;
44366;SDS011;30086;57.660;12.000;2024-02-21T13:58:07;5.63;;;1.67;;
44366;SDS011;30086;57.660;12.000;2024-02-21T14:00:33;6.32;;;1.60;;
44366;SDS011;30086;57.660;12.000;2024-02-21T14:03:01;1.15;;;0.98;;
44366;SDS011;30086;57.660;12.000;2024-02-21T14:05:27;3.15;;;1.15;;
44366;SDS011;30086;57.660;12.000;2024-02-21T14:07:53;8.82;;;1.50;;
44366;SDS011;30086;57.660;12.000;2024-02-21T14:10:22;3.15;;;1.60;;
44366;SDS011;30086;57.660;12.000;2024-02-21T14:12:49;6.40;;;1.60;;
44366;SDS011;30086;57.660;12.000;2024-02-21T14:15:15;7.50;;;1.42;;
44366;SDS011;30086;57.660;12.000;2024-02-21T14:17:45;5.53;;;1.30;;
44366;SDS011;30086;57.660;12.000;2024-02-21T14:20:13;8.32;;;1.55;;
44366;SDS011;30086;57.660;12.000;2024-02-21T14:22:39;6.72;;;1.33;;
44366;SDS011;30086;57.660;12.000;2024-02-21T14:25:05;10.27;;;2.60;;